sensor_id;sensor_type;location;lat;lon;timestamp;temperature;humidity
29031;DHT22;16122;50.236;11.734;2024-03-25T00:00:28;17.10;71.90
29031;DHT22;16122;50.236;11.734;2024-03-25T00:02:53;17.10;72.00
29031;DHT22;16122;50.236;11.734;2024-03-25T00:05:20;17.20;72.00
29031;DHT22;16122;50.236;11.734;2024-03-25T00:07:48;17.10;71.90
29031;DHT22;16122;50.236;11.734;2024-03-25T00:10:15;17.10;71.90
29031;DHT22;16122;50.236;11.734;2024-03-25T00:12:41;17.00;72.00
29031;DHT22;16122;50.236;11.734;2024-03-25T00:15:07;17.10;72.00
29031;DHT22;16122;50.236;11.734;2024-03-25T00:17:34;17.00;71.90
29031;DHT22;16122;50.236;11.734;2024-03-25T00:20:00;17.00;71.90
29031;DHT22;16122;50.236;11.734;2024-03-25T00:22:26;17.00;71.90
29031;DHT22;16122;50.236;11.734;2024-03-25T00:24:52;17.00;71.90
29031;DHT22;16122;50.236;11.734;2024-03-25T00:27:18;16.90;72.00
29031;DHT22;16122;50.236;11.734;2024-03-25T00:29:45;17.00;72.00
29031;DHT22;16122;50.236;11.734;2024-03-25T00:32:10;16.90;71.90
29031;DHT22;16122;50.236;11.734;2024-03-25T00:34:37;16.90;71.90
29031;DHT22;16122;50.236;11.734;2024-03-25T00:37:03;16.90;72.00
29031;DHT22;16122;50.236;11.734;2024-03-25T00:39:29;16.90;71.80
29031;DHT22;16122;50.236;11.734;2024-03-25T00:41:58;16.90;72.00
29031;DHT22;16122;50.236;11.734;2024-03-25T00:44:24;17.00;72.00
29031;DHT22;16122;50.236;11.734;2024-03-25T00:46:50;16.90;72.10
29031;DHT22;16122;50.236;11.734;2024-03-25T00:49:17;16.80;72.10
29031;DHT22;16122;50.236;11.734;2024-03-25T00:51:43;16.80;71.90
29031;DHT22;16122;50.236;11.734;2024-03-25T00:54:08;16.80;71.90
29031;DHT22;16122;50.236;11.734;2024-03-25T00:56:34;16.90;72.00
29031;DHT22;16122;50.236;11.734;2024-03-25T00:59:00;16.90;72.00
29031;DHT22;16122;50.236;11.734;2024-03-25T01:01:32;16.90;72.10
29031;DHT22;16122;50.236;11.734;2024-03-25T01:03:58;16.80;72.20
29031;DHT22;16122;50.236;11.734;2024-03-25T01:06:24;16.70;71.90
29031;DHT22;16122;50.236;11.734;2024-03-25T01:08:50;16.70;72.10
29031;DHT22;16122;50.236;11.734;2024-03-25T01:11:17;16.70;72.90
29031;DHT22;16122;50.236;11.734;2024-03-25T01:13:44;16.70;72.00
29031;DHT22;16122;50.236;11.734;2024-03-25T01:16:10;16.70;72.20
29031;DHT22;16122;50.236;11.734;2024-03-25T01:18:36;16.70;71.90
29031;DHT22;16122;50.236;11.734;2024-03-25T01:21:02;16.60;72.00
29031;DHT22;16122;50.236;11.734;2024-03-25T01:23:30;16.60;71.90
29031;DHT22;16122;50.236;11.734;2024-03-25T01:25:56;16.70;72.10
29031;DHT22;16122;50.236;11.734;2024-03-25T01:28:22;16.60;71.80
29031;DHT22;16122;50.236;11.734;2024-03-25T01:30:48;16.60;72.00
29031;DHT22;16122;50.236;11.734;2024-03-25T01:33:14;16.60;72.00
29031;DHT22;16122;50.236;11.734;2024-03-25T01:35:40;16.60;72.10
29031;DHT22;16122;50.236;11.734;2024-03-25T01:38:06;16.60;72.00
29031;DHT22;16122;50.236;11.734;2024-03-25T01:40:33;16.60;72.00
29031;DHT22;16122;50.236;11.734;2024-03-25T01:43:02;16.50;71.90
29031;DHT22;16122;50.236;11.734;2024-03-25T01:45:30;16.50;71.60
29031;DHT22;16122;50.236;11.734;2024-03-25T01:47:57;16.60;72.00
29031;DHT22;16122;50.236;11.734;2024-03-25T01:50:24;16.50;71.90
29031;DHT22;16122;50.236;11.734;2024-03-25T01:52:50;16.50;71.90
29031;DHT22;16122;50.236;11.734;2024-03-25T01:55:20;16.40;71.40
29031;DHT22;16122;50.236;11.734;2024-03-25T01:57:47;16.50;71.90
29031;DHT22;16122;50.236;11.734;2024-03-25T02:00:14;16.40;71.80
29031;DHT22;16122;50.236;11.734;2024-03-25T02:02:45;16.50;71.80
29031;DHT22;16122;50.236;11.734;2024-03-25T02:05:13;16.40;71.70
29031;DHT22;16122;50.236;11.734;2024-03-25T02:07:40;16.50;71.40
29031;DHT22;16122;50.236;11.734;2024-03-25T02:10:08;16.50;71.20
29031;DHT22;16122;50.236;11.734;2024-03-25T02:12:43;16.50;70.80
29031;DHT22;16122;50.236;11.734;2024-03-25T02:15:10;16.50;70.50
29031;DHT22;16122;50.236;11.734;2024-03-25T02:17:37;16.70;70.50
29031;DHT22;16122;50.236;11.734;2024-03-25T02:20:05;16.60;70.20
29031;DHT22;16122;50.236;11.734;2024-03-25T02:22:33;16.60;70.10
29031;DHT22;16122;50.236;11.734;2024-03-25T02:25:00;16.70;70.10
29031;DHT22;16122;50.236;11.734;2024-03-25T02:27:27;16.60;69.80
29031;DHT22;16122;50.236;11.734;2024-03-25T02:30:10;16.60;69.70
29031;DHT22;16122;50.236;11.734;2024-03-25T02:32:40;16.60;69.80
29031;DHT22;16122;50.236;11.734;2024-03-25T02:35:10;16.70;69.90
29031;DHT22;16122;50.236;11.734;2024-03-25T02:37:39;16.70;70.10
29031;DHT22;16122;50.236;11.734;2024-03-25T02:40:05;16.70;70.10
29031;DHT22;16122;50.236;11.734;2024-03-25T02:42:33;16.80;70.20
29031;DHT22;16122;50.236;11.734;2024-03-25T02:44:59;16.70;69.80
29031;DHT22;16122;50.236;11.734;2024-03-25T02:47:25;16.70;69.90
29031;DHT22;16122;50.236;11.734;2024-03-25T02:49:51;16.70;69.80
29031;DHT22;16122;50.236;11.734;2024-03-25T02:52:19;16.70;70.00
29031;DHT22;16122;50.236;11.734;2024-03-25T02:54:45;16.70;70.00
29031;DHT22;16122;50.236;11.734;2024-03-25T02:57:13;16.70;69.80
29031;DHT22;16122;50.236;11.734;2024-03-25T02:59:38;16.80;69.90
29031;DHT22;16122;50.236;11.734;2024-03-25T03:02:04;16.70;69.60
29031;DHT22;16122;50.236;11.734;2024-03-25T03:04:30;16.70;69.60
29031;DHT22;16122;50.236;11.734;2024-03-25T03:06:57;16.80;69.50
29031;DHT22;16122;50.236;11.734;2024-03-25T03:09:22;16.70;69.20
29031;DHT22;16122;50.236;11.734;2024-03-25T03:11:48;16.80;69.30
29031;DHT22;16122;50.236;11.734;2024-03-25T03:14:14;16.70;69.20
29031;DHT22;16122;50.236;11.734;2024-03-25T03:16:40;16.70;69.10
29031;DHT22;16122;50.236;11.734;2024-03-25T03:19:06;16.70;69.00
29031;DHT22;16122;50.236;11.734;2024-03-25T03:21:32;16.70;69.00
29031;DHT22;16122;50.236;11.734;2024-03-25T03:23:57;16.80;68.90
29031;DHT22;16122;50.236;11.734;2024-03-25T03:26:23;16.80;68.90
29031;DHT22;16122;50.236;11.734;2024-03-25T03:28:56;16.70;68.70
29031;DHT22;16122;50.236;11.734;2024-03-25T03:31:22;16.70;68.60
29031;DHT22;16122;50.236;11.734;2024-03-25T03:33:48;16.80;68.70
29031;DHT22;16122;50.236;11.734;2024-03-25T03:36:18;16.80;68.80
29031;DHT22;16122;50.236;11.734;2024-03-25T03:38:45;16.90;68.70
29031;DHT22;16122;50.236;11.734;2024-03-25T03:41:11;16.70;68.40
29031;DHT22;16122;50.236;11.734;2024-03-25T03:43:37;16.70;68.60
29031;DHT22;16122;50.236;11.734;2024-03-25T03:46:03;16.70;68.50
29031;DHT22;16122;50.236;11.734;2024-03-25T03:48:29;16.70;68.30
29031;DHT22;16122;50.236;11.734;2024-03-25T03:50:55;16.80;68.60
29031;DHT22;16122;50.236;11.734;2024-03-25T03:53:22;16.70;68.20
29031;DHT22;16122;50.236;11.734;2024-03-25T03:55:58;16.70;68.20
29031;DHT22;16122;50.236;11.734;2024-03-25T03:58:25;16.80;68.30
29031;DHT22;16122;50.236;11.734;2024-03-25T04:00:51;16.80;68.30
29031;DHT22;16122;50.236;11.734;2024-03-25T04:03:18;16.80;68.40
29031;DHT22;16122;50.236;11.734;2024-03-25T04:05:45;16.70;68.10
29031;DHT22;16122;50.236;11.734;2024-03-25T04:08:11;16.70;68.20
29031;DHT22;16122;50.236;11.734;2024-03-25T04:10:37;16.70;68.20
29031;DHT22;16122;50.236;11.734;2024-03-25T04:13:04;16.80;68.20
29031;DHT22;16122;50.236;11.734;2024-03-25T04:15:36;16.70;68.30
29031;DHT22;16122;50.236;11.734;2024-03-25T04:18:03;16.70;68.30
29031;DHT22;16122;50.236;11.734;2024-03-25T04:20:29;16.70;68.40
29031;DHT22;16122;50.236;11.734;2024-03-25T04:22:56;16.70;68.40
29031;DHT22;16122;50.236;11.734;2024-03-25T04:25:22;16.70;68.40
29031;DHT22;16122;50.236;11.734;2024-03-25T04:27:48;16.60;68.20
29031;DHT22;16122;50.236;11.734;2024-03-25T04:30:14;16.70;68.20
29031;DHT22;16122;50.236;11.734;2024-03-25T04:32:40;16.60;68.10
29031;DHT22;16122;50.236;11.734;2024-03-25T04:35:07;16.70;68.20
29031;DHT22;16122;50.236;11.734;2024-03-25T04:37:34;16.70;68.00
29031;DHT22;16122;50.236;11.734;2024-03-25T04:39:59;16.80;68.00
29031;DHT22;16122;50.236;11.734;2024-03-25T04:42:26;16.80;67.90
29031;DHT22;16122;50.236;11.734;2024-03-25T04:44:52;16.70;67.70
29031;DHT22;16122;50.236;11.734;2024-03-25T04:47:19;16.70;67.90
29031;DHT22;16122;50.236;11.734;2024-03-25T04:49:45;16.70;67.90
29031;DHT22;16122;50.236;11.734;2024-03-25T04:52:15;16.70;67.90
29031;DHT22;16122;50.236;11.734;2024-03-25T04:54:44;16.70;67.80
29031;DHT22;16122;50.236;11.734;2024-03-25T04:57:10;16.70;67.80
29031;DHT22;16122;50.236;11.734;2024-03-25T04:59:36;16.70;67.70
29031;DHT22;16122;50.236;11.734;2024-03-25T05:02:01;16.80;67.80
29031;DHT22;16122;50.236;11.734;2024-03-25T05:04:27;16.80;67.70
29031;DHT22;16122;50.236;11.734;2024-03-25T05:06:53;16.70;67.50
29031;DHT22;16122;50.236;11.734;2024-03-25T05:09:19;16.80;67.70
29031;DHT22;16122;50.236;11.734;2024-03-25T05:11:45;16.80;67.80
29031;DHT22;16122;50.236;11.734;2024-03-25T05:14:11;16.80;67.90
29031;DHT22;16122;50.236;11.734;2024-03-25T05:16:37;16.70;67.80
29031;DHT22;16122;50.236;11.734;2024-03-25T05:19:03;16.70;67.80
29031;DHT22;16122;50.236;11.734;2024-03-25T05:21:30;16.80;68.00
29031;DHT22;16122;50.236;11.734;2024-03-25T05:23:57;16.70;68.10
29031;DHT22;16122;50.236;11.734;2024-03-25T05:26:23;16.70;68.20
29031;DHT22;16122;50.236;11.734;2024-03-25T05:28:56;16.70;68.10
29031;DHT22;16122;50.236;11.734;2024-03-25T05:31:22;16.70;68.40
29031;DHT22;16122;50.236;11.734;2024-03-25T05:33:48;16.70;68.50
29031;DHT22;16122;50.236;11.734;2024-03-25T05:36:14;16.70;68.70
29031;DHT22;16122;50.236;11.734;2024-03-25T05:38:40;16.70;68.90
29031;DHT22;16122;50.236;11.734;2024-03-25T05:41:09;16.80;69.20
29031;DHT22;16122;50.236;11.734;2024-03-25T05:43:35;16.80;69.10
29031;DHT22;16122;50.236;11.734;2024-03-25T05:46:02;16.70;68.90
29031;DHT22;16122;50.236;11.734;2024-03-25T05:48:28;16.70;69.00
29031;DHT22;16122;50.236;11.734;2024-03-25T05:51:03;16.70;69.10
29031;DHT22;16122;50.236;11.734;2024-03-25T05:53:35;16.70;68.90
29031;DHT22;16122;50.236;11.734;2024-03-25T05:56:01;16.70;68.80
29031;DHT22;16122;50.236;11.734;2024-03-25T05:58:27;16.80;68.90
29031;DHT22;16122;50.236;11.734;2024-03-25T06:00:54;16.80;68.90
29031;DHT22;16122;50.236;11.734;2024-03-25T06:03:20;16.70;69.00
29031;DHT22;16122;50.236;11.734;2024-03-25T06:05:47;16.70;68.80
29031;DHT22;16122;50.236;11.734;2024-03-25T06:08:13;16.80;69.50
29031;DHT22;16122;50.236;11.734;2024-03-25T06:10:52;16.70;69.50
29031;DHT22;16122;50.236;11.734;2024-03-25T06:13:18;16.80;70.00
29031;DHT22;16122;50.236;11.734;2024-03-25T06:15:44;16.70;70.00
29031;DHT22;16122;50.236;11.734;2024-03-25T06:18:10;16.70;69.50
29031;DHT22;16122;50.236;11.734;2024-03-25T06:20:36;16.70;70.00
29031;DHT22;16122;50.236;11.734;2024-03-25T06:23:03;16.70;70.20
29031;DHT22;16122;50.236;11.734;2024-03-25T06:25:29;16.80;70.40
29031;DHT22;16122;50.236;11.734;2024-03-25T06:27:55;16.70;70.40
29031;DHT22;16122;50.236;11.734;2024-03-25T06:30:21;16.70;70.40
29031;DHT22;16122;50.236;11.734;2024-03-25T06:33:06;16.70;70.50
29031;DHT22;16122;50.236;11.734;2024-03-25T06:35:50;16.70;70.70
29031;DHT22;16122;50.236;11.734;2024-03-25T06:38:17;16.70;70.90
29031;DHT22;16122;50.236;11.734;2024-03-25T06:40:45;16.80;71.00
29031;DHT22;16122;50.236;11.734;2024-03-25T06:43:11;16.80;71.00
29031;DHT22;16122;50.236;11.734;2024-03-25T06:45:37;16.70;71.10
29031;DHT22;16122;50.236;11.734;2024-03-25T06:48:03;16.80;71.20
29031;DHT22;16122;50.236;11.734;2024-03-25T06:50:30;16.80;71.30
29031;DHT22;16122;50.236;11.734;2024-03-25T06:52:55;16.80;71.30
29031;DHT22;16122;50.236;11.734;2024-03-25T06:55:22;16.70;70.90
29031;DHT22;16122;50.236;11.734;2024-03-25T06:57:53;16.70;70.70
29031;DHT22;16122;50.236;11.734;2024-03-25T07:00:19;16.70;70.60
29031;DHT22;16122;50.236;11.734;2024-03-25T07:02:48;16.70;70.60
29031;DHT22;16122;50.236;11.734;2024-03-25T07:05:14;16.90;70.80
29031;DHT22;16122;50.236;11.734;2024-03-25T07:07:39;16.70;70.80
29031;DHT22;16122;50.236;11.734;2024-03-25T07:10:06;16.70;70.80
29031;DHT22;16122;50.236;11.734;2024-03-25T07:12:32;16.80;70.90
29031;DHT22;16122;50.236;11.734;2024-03-25T07:14:57;16.80;70.80
29031;DHT22;16122;50.236;11.734;2024-03-25T07:17:23;16.70;70.80
29031;DHT22;16122;50.236;11.734;2024-03-25T07:19:51;16.80;71.00
29031;DHT22;16122;50.236;11.734;2024-03-25T07:22:16;16.70;71.20
29031;DHT22;16122;50.236;11.734;2024-03-25T07:24:42;16.70;71.30
29031;DHT22;16122;50.236;11.734;2024-03-25T07:27:08;16.70;71.40
29031;DHT22;16122;50.236;11.734;2024-03-25T07:29:35;16.80;71.50
29031;DHT22;16122;50.236;11.734;2024-03-25T07:32:01;16.90;71.70
29031;DHT22;16122;50.236;11.734;2024-03-25T07:34:27;16.80;71.60
29031;DHT22;16122;50.236;11.734;2024-03-25T07:36:53;16.70;71.60
29031;DHT22;16122;50.236;11.734;2024-03-25T07:39:18;16.70;71.50
29031;DHT22;16122;50.236;11.734;2024-03-25T07:41:44;16.80;71.80
29031;DHT22;16122;50.236;11.734;2024-03-25T07:44:10;16.70;71.70
29031;DHT22;16122;50.236;11.734;2024-03-25T07:46:35;16.80;71.70
29031;DHT22;16122;50.236;11.734;2024-03-25T07:49:01;16.70;71.40
29031;DHT22;16122;50.236;11.734;2024-03-25T07:51:27;16.80;71.50
29031;DHT22;16122;50.236;11.734;2024-03-25T07:53:53;16.80;71.60
29031;DHT22;16122;50.236;11.734;2024-03-25T07:56:20;16.80;71.50
29031;DHT22;16122;50.236;11.734;2024-03-25T07:58:46;16.80;71.60
29031;DHT22;16122;50.236;11.734;2024-03-25T08:01:12;16.90;71.50
29031;DHT22;16122;50.236;11.734;2024-03-25T08:03:38;16.80;71.40
29031;DHT22;16122;50.236;11.734;2024-03-25T08:06:04;16.90;71.50
29031;DHT22;16122;50.236;11.734;2024-03-25T08:08:29;16.80;71.50
29031;DHT22;16122;50.236;11.734;2024-03-25T08:10:55;16.80;71.60
29031;DHT22;16122;50.236;11.734;2024-03-25T08:13:21;16.80;71.80
29031;DHT22;16122;50.236;11.734;2024-03-25T08:15:47;16.80;71.80
29031;DHT22;16122;50.236;11.734;2024-03-25T08:18:13;16.80;71.80
29031;DHT22;16122;50.236;11.734;2024-03-25T08:20:39;16.80;71.80
29031;DHT22;16122;50.236;11.734;2024-03-25T08:23:05;16.80;71.90
29031;DHT22;16122;50.236;11.734;2024-03-25T08:25:32;16.80;71.30
29031;DHT22;16122;50.236;11.734;2024-03-25T08:27:58;16.80;71.00
29031;DHT22;16122;50.236;11.734;2024-03-25T08:30:25;16.80;72.00
29031;DHT22;16122;50.236;11.734;2024-03-25T08:32:51;16.80;71.50
29031;DHT22;16122;50.236;11.734;2024-03-25T08:35:17;16.80;72.50
29031;DHT22;16122;50.236;11.734;2024-03-25T08:37:43;16.90;71.90
29031;DHT22;16122;50.236;11.734;2024-03-25T08:40:09;16.90;71.80
29031;DHT22;16122;50.236;11.734;2024-03-25T08:42:35;16.80;71.90
29031;DHT22;16122;50.236;11.734;2024-03-25T08:45:01;16.90;72.00
29031;DHT22;16122;50.236;11.734;2024-03-25T08:47:27;16.80;71.90
29031;DHT22;16122;50.236;11.734;2024-03-25T08:49:52;16.80;71.70
29031;DHT22;16122;50.236;11.734;2024-03-25T08:52:18;16.80;71.90
29031;DHT22;16122;50.236;11.734;2024-03-25T08:54:45;16.80;71.40
29031;DHT22;16122;50.236;11.734;2024-03-25T08:57:13;16.80;71.10
29031;DHT22;16122;50.236;11.734;2024-03-25T08:59:39;16.80;70.90
29031;DHT22;16122;50.236;11.734;2024-03-25T09:02:05;16.80;70.80
29031;DHT22;16122;50.236;11.734;2024-03-25T09:04:31;16.80;70.80
29031;DHT22;16122;50.236;11.734;2024-03-25T09:06:57;16.70;70.50
29031;DHT22;16122;50.236;11.734;2024-03-25T09:09:23;16.80;70.50
29031;DHT22;16122;50.236;11.734;2024-03-25T09:12:07;16.80;70.40
29031;DHT22;16122;50.236;11.734;2024-03-25T09:14:33;16.80;70.10
29031;DHT22;16122;50.236;11.734;2024-03-25T09:16:59;16.90;70.30
29031;DHT22;16122;50.236;11.734;2024-03-25T09:19:25;16.80;70.30
29031;DHT22;16122;50.236;11.734;2024-03-25T09:21:51;16.80;70.20
29031;DHT22;16122;50.236;11.734;2024-03-25T09:24:17;16.80;70.40
29031;DHT22;16122;50.236;11.734;2024-03-25T09:26:44;16.90;70.10
29031;DHT22;16122;50.236;11.734;2024-03-25T09:29:12;16.80;69.70
29031;DHT22;16122;50.236;11.734;2024-03-25T09:31:38;16.90;70.00
29031;DHT22;16122;50.236;11.734;2024-03-25T09:34:05;16.90;70.20
29031;DHT22;16122;50.236;11.734;2024-03-25T09:36:31;16.80;70.30
29031;DHT22;16122;50.236;11.734;2024-03-25T09:38:56;16.90;70.50
29031;DHT22;16122;50.236;11.734;2024-03-25T09:41:23;16.90;70.70
29031;DHT22;16122;50.236;11.734;2024-03-25T09:43:54;17.00;71.10
29031;DHT22;16122;50.236;11.734;2024-03-25T09:46:21;16.90;70.90
29031;DHT22;16122;50.236;11.734;2024-03-25T09:48:48;16.90;70.70
29031;DHT22;16122;50.236;11.734;2024-03-25T09:51:15;17.00;70.70
29031;DHT22;16122;50.236;11.734;2024-03-25T09:53:41;16.90;70.60
29031;DHT22;16122;50.236;11.734;2024-03-25T09:56:07;17.00;70.80
29031;DHT22;16122;50.236;11.734;2024-03-25T09:58:34;16.90;70.70
29031;DHT22;16122;50.236;11.734;2024-03-25T10:01:00;16.90;70.30
29031;DHT22;16122;50.236;11.734;2024-03-25T10:03:26;17.00;70.60
29031;DHT22;16122;50.236;11.734;2024-03-25T10:05:51;17.00;70.80
29031;DHT22;16122;50.236;11.734;2024-03-25T10:08:21;17.00;71.00
29031;DHT22;16122;50.236;11.734;2024-03-25T10:10:47;17.00;70.90
29031;DHT22;16122;50.236;11.734;2024-03-25T10:13:13;17.00;71.00
29031;DHT22;16122;50.236;11.734;2024-03-25T10:15:39;16.90;71.10
29031;DHT22;16122;50.236;11.734;2024-03-25T10:18:05;17.00;70.40
29031;DHT22;16122;50.236;11.734;2024-03-25T10:20:32;17.00;70.40
29031;DHT22;16122;50.236;11.734;2024-03-25T10:23:00;16.90;70.10
29031;DHT22;16122;50.236;11.734;2024-03-25T10:25:28;17.00;69.90
29031;DHT22;16122;50.236;11.734;2024-03-25T10:28:00;16.90;69.90
29031;DHT22;16122;50.236;11.734;2024-03-25T10:30:28;17.00;69.60
29031;DHT22;16122;50.236;11.734;2024-03-25T10:33:05;16.90;69.50
29031;DHT22;16122;50.236;11.734;2024-03-25T10:35:33;16.80;69.30
29031;DHT22;16122;50.236;11.734;2024-03-25T10:38:04;16.80;69.10
29031;DHT22;16122;50.236;11.734;2024-03-25T10:40:35;16.90;69.30
29031;DHT22;16122;50.236;11.734;2024-03-25T10:43:09;16.80;69.60
29031;DHT22;16122;50.236;11.734;2024-03-25T10:45:43;16.90;70.20
29031;DHT22;16122;50.236;11.734;2024-03-25T10:48:25;16.80;70.30
29031;DHT22;16122;50.236;11.734;2024-03-25T10:50:55;16.80;70.60
29031;DHT22;16122;50.236;11.734;2024-03-25T10:53:21;17.00;70.40
29031;DHT22;16122;50.236;11.734;2024-03-25T10:55:52;16.80;70.40
29031;DHT22;16122;50.236;11.734;2024-03-25T10:58:21;16.90;70.20
29031;DHT22;16122;50.236;11.734;2024-03-25T11:00:49;16.90;70.10
29031;DHT22;16122;50.236;11.734;2024-03-25T11:03:16;16.90;71.90
29031;DHT22;16122;50.236;11.734;2024-03-25T11:05:42;16.90;72.80
29031;DHT22;16122;50.236;11.734;2024-03-25T11:08:16;16.90;72.90
29031;DHT22;16122;50.236;11.734;2024-03-25T11:10:46;16.90;72.90
29031;DHT22;16122;50.236;11.734;2024-03-25T11:13:17;16.90;72.80
29031;DHT22;16122;50.236;11.734;2024-03-25T11:15:48;16.90;72.90
29031;DHT22;16122;50.236;11.734;2024-03-25T11:18:16;17.00;73.00
29031;DHT22;16122;50.236;11.734;2024-03-25T11:20:44;16.90;72.70
29031;DHT22;16122;50.236;11.734;2024-03-25T11:23:13;16.80;72.50
29031;DHT22;16122;50.236;11.734;2024-03-25T11:25:41;16.80;72.70
29031;DHT22;16122;50.236;11.734;2024-03-25T11:28:08;16.80;73.00
29031;DHT22;16122;50.236;11.734;2024-03-25T11:30:36;16.80;73.10
29031;DHT22;16122;50.236;11.734;2024-03-25T11:33:02;16.80;73.20
29031;DHT22;16122;50.236;11.734;2024-03-25T11:35:37;16.90;73.50
29031;DHT22;16122;50.236;11.734;2024-03-25T11:38:03;16.70;73.60
29031;DHT22;16122;50.236;11.734;2024-03-25T11:40:29;16.90;74.20
29031;DHT22;16122;50.236;11.734;2024-03-25T11:42:55;16.80;73.90
29031;DHT22;16122;50.236;11.734;2024-03-25T11:45:21;16.80;73.90
29031;DHT22;16122;50.236;11.734;2024-03-25T11:47:49;16.70;73.70
29031;DHT22;16122;50.236;11.734;2024-03-25T11:50:17;16.80;74.10
29031;DHT22;16122;50.236;11.734;2024-03-25T11:52:44;16.80;74.70
29031;DHT22;16122;50.236;11.734;2024-03-25T11:55:10;16.80;74.90
29031;DHT22;16122;50.236;11.734;2024-03-25T11:57:40;16.70;74.90
29031;DHT22;16122;50.236;11.734;2024-03-25T12:00:08;16.80;75.20
29031;DHT22;16122;50.236;11.734;2024-03-25T12:02:44;16.70;74.80
29031;DHT22;16122;50.236;11.734;2024-03-25T12:05:13;16.70;74.80
29031;DHT22;16122;50.236;11.734;2024-03-25T12:07:39;16.70;74.70
29031;DHT22;16122;50.236;11.734;2024-03-25T12:10:06;16.70;74.70
29031;DHT22;16122;50.236;11.734;2024-03-25T12:12:50;16.70;74.60
29031;DHT22;16122;50.236;11.734;2024-03-25T12:15:20;16.70;74.50
29031;DHT22;16122;50.236;11.734;2024-03-25T12:17:46;16.70;74.10
29031;DHT22;16122;50.236;11.734;2024-03-25T12:20:12;16.60;73.80
29031;DHT22;16122;50.236;11.734;2024-03-25T12:22:41;16.60;73.80
29031;DHT22;16122;50.236;11.734;2024-03-25T12:25:08;16.70;73.70
29031;DHT22;16122;50.236;11.734;2024-03-25T12:27:36;16.60;73.40
29031;DHT22;16122;50.236;11.734;2024-03-25T12:30:07;16.70;73.50
29031;DHT22;16122;50.236;11.734;2024-03-25T12:32:37;16.60;73.30
29031;DHT22;16122;50.236;11.734;2024-03-25T12:35:08;16.70;73.20
29031;DHT22;16122;50.236;11.734;2024-03-25T12:37:34;16.60;72.80
29031;DHT22;16122;50.236;11.734;2024-03-25T12:39:59;16.60;72.60
29031;DHT22;16122;50.236;11.734;2024-03-25T12:42:26;16.70;72.50
29031;DHT22;16122;50.236;11.734;2024-03-25T12:44:55;16.60;72.60
29031;DHT22;16122;50.236;11.734;2024-03-25T12:47:21;16.70;72.70
29031;DHT22;16122;50.236;11.734;2024-03-25T12:49:47;16.60;72.40
29031;DHT22;16122;50.236;11.734;2024-03-25T12:52:13;16.70;72.50
29031;DHT22;16122;50.236;11.734;2024-03-25T12:54:38;16.60;72.40
29031;DHT22;16122;50.236;11.734;2024-03-25T12:57:05;16.50;72.30
29031;DHT22;16122;50.236;11.734;2024-03-25T12:59:31;16.70;72.40
29031;DHT22;16122;50.236;11.734;2024-03-25T13:01:57;16.50;72.30
29031;DHT22;16122;50.236;11.734;2024-03-25T13:04:23;16.70;72.20
29031;DHT22;16122;50.236;11.734;2024-03-25T13:06:48;16.60;72.00
29031;DHT22;16122;50.236;11.734;2024-03-25T13:09:14;16.50;71.90
29031;DHT22;16122;50.236;11.734;2024-03-25T13:11:40;16.50;71.90
29031;DHT22;16122;50.236;11.734;2024-03-25T13:14:06;16.50;71.90
29031;DHT22;16122;50.236;11.734;2024-03-25T13:16:35;16.50;71.80
29031;DHT22;16122;50.236;11.734;2024-03-25T13:19:01;16.50;71.90
29031;DHT22;16122;50.236;11.734;2024-03-25T13:21:27;16.50;71.90
29031;DHT22;16122;50.236;11.734;2024-03-25T13:23:53;16.50;71.90
29031;DHT22;16122;50.236;11.734;2024-03-25T13:26:19;16.50;71.80
29031;DHT22;16122;50.236;11.734;2024-03-25T13:28:44;16.50;71.80
29031;DHT22;16122;50.236;11.734;2024-03-25T13:31:11;16.40;71.70
29031;DHT22;16122;50.236;11.734;2024-03-25T13:33:38;16.40;71.70
29031;DHT22;16122;50.236;11.734;2024-03-25T13:36:05;16.50;73.20
29031;DHT22;16122;50.236;11.734;2024-03-25T13:38:32;16.50;72.60
29031;DHT22;16122;50.236;11.734;2024-03-25T13:41:00;16.60;72.60
29031;DHT22;16122;50.236;11.734;2024-03-25T13:43:26;16.50;72.90
29031;DHT22;16122;50.236;11.734;2024-03-25T13:45:51;16.50;73.00
29031;DHT22;16122;50.236;11.734;2024-03-25T13:48:17;16.50;73.10
29031;DHT22;16122;50.236;11.734;2024-03-25T13:50:44;16.60;73.60
29031;DHT22;16122;50.236;11.734;2024-03-25T13:53:13;16.50;73.50
29031;DHT22;16122;50.236;11.734;2024-03-25T13:55:39;16.50;73.50
29031;DHT22;16122;50.236;11.734;2024-03-25T13:58:05;16.50;73.50
29031;DHT22;16122;50.236;11.734;2024-03-25T14:00:32;16.50;73.40
29031;DHT22;16122;50.236;11.734;2024-03-25T14:02:59;16.50;73.60
29031;DHT22;16122;50.236;11.734;2024-03-25T14:05:25;16.50;73.60
29031;DHT22;16122;50.236;11.734;2024-03-25T14:07:51;16.50;73.70
29031;DHT22;16122;50.236;11.734;2024-03-25T14:10:17;16.50;73.60
29031;DHT22;16122;50.236;11.734;2024-03-25T14:12:43;16.50;73.70
29031;DHT22;16122;50.236;11.734;2024-03-25T14:15:09;16.60;73.80
29031;DHT22;16122;50.236;11.734;2024-03-25T14:17:35;16.50;73.80
29031;DHT22;16122;50.236;11.734;2024-03-25T14:20:01;16.50;73.80
29031;DHT22;16122;50.236;11.734;2024-03-25T14:22:27;16.60;73.90
29031;DHT22;16122;50.236;11.734;2024-03-25T14:24:53;16.50;73.60
29031;DHT22;16122;50.236;11.734;2024-03-25T14:27:26;16.50;73.90
29031;DHT22;16122;50.236;11.734;2024-03-25T14:29:52;16.60;74.20
29031;DHT22;16122;50.236;11.734;2024-03-25T14:32:22;16.50;74.10
29031;DHT22;16122;50.236;11.734;2024-03-25T14:34:48;16.50;74.20
29031;DHT22;16122;50.236;11.734;2024-03-25T14:37:15;16.50;74.20
29031;DHT22;16122;50.236;11.734;2024-03-25T14:39:41;16.50;74.30
29031;DHT22;16122;50.236;11.734;2024-03-25T14:42:10;16.50;74.00
29031;DHT22;16122;50.236;11.734;2024-03-25T14:44:37;16.60;74.40
29031;DHT22;16122;50.236;11.734;2024-03-25T14:47:03;16.50;74.40
29031;DHT22;16122;50.236;11.734;2024-03-25T14:49:30;16.50;74.30
29031;DHT22;16122;50.236;11.734;2024-03-25T14:51:56;16.50;74.50
29031;DHT22;16122;50.236;11.734;2024-03-25T14:54:22;16.50;74.50
29031;DHT22;16122;50.236;11.734;2024-03-25T14:56:48;16.50;74.50
29031;DHT22;16122;50.236;11.734;2024-03-25T14:59:14;16.50;74.50
29031;DHT22;16122;50.236;11.734;2024-03-25T15:01:40;16.40;74.30
29031;DHT22;16122;50.236;11.734;2024-03-25T15:04:06;16.50;74.60
29031;DHT22;16122;50.236;11.734;2024-03-25T15:06:33;16.50;74.00
29031;DHT22;16122;50.236;11.734;2024-03-25T15:08:59;16.60;74.40
29031;DHT22;16122;50.236;11.734;2024-03-25T15:11:26;16.40;74.30
29031;DHT22;16122;50.236;11.734;2024-03-25T15:13:52;16.50;74.40